sensor_id;sensor_type;location;lat;lon;timestamp;P1;durP1;ratioP1;P2;durP2;ratioP2
44440;SDS011;30146;52.268;20.944;2022-10-23T00:00:20;27.30;;;16.80;;
44440;SDS011;30146;52.268;20.944;2022-10-23T00:02:52;21.50;;;15.80;;
44440;SDS011;30146;52.268;20.944;2022-10-23T00:05:24;23.60;;;15.60;;
44440;SDS011;30146;52.268;20.944;2022-10-23T00:07:57;21.20;;;15.90;;
44440;SDS011;30146;52.268;20.944;2022-10-23T00:10:28;25.60;;;16.70;;
44440;SDS011;30146;52.268;20.944;2022-10-23T00:12:59;22.90;;;16.40;;
44440;SDS011;30146;52.268;20.944;2022-10-23T00:15:31;26.70;;;16.80;;
44440;SDS011;30146;52.268;20.944;2022-10-23T00:18:04;25.70;;;17.20;;
44440;SDS011;30146;52.268;20.944;2022-10-23T00:20:35;23.50;;;16.50;;
44440;SDS011;30146;52.268;20.944;2022-10-23T00:23:06;23.50;;;16.50;;
44440;SDS011;30146;52.268;20.944;2022-10-23T00:25:37;24.60;;;17.00;;
44440;SDS011;30146;52.268;20.944;2022-10-23T00:28:09;28.70;;;17.10;;
44440;SDS011;30146;52.268;20.944;2022-10-23T00:30:39;22.00;;;16.40;;
44440;SDS011;30146;52.268;20.944;2022-10-23T00:33:10;20.80;;;15.70;;
44440;SDS011;30146;52.268;20.944;2022-10-23T00:35:41;21.00;;;17.20;;
44440;SDS011;30146;52.268;20.944;2022-10-23T00:38:12;22.60;;;16.90;;
44440;SDS011;30146;52.268;20.944;2022-10-23T00:40:43;23.30;;;17.40;;
44440;SDS011;30146;52.268;20.944;2022-10-23T00:43:17;23.50;;;18.10;;
44440;SDS011;30146;52.268;20.944;2022-10-23T00:45:51;24.20;;;17.90;;
44440;SDS011;30146;52.268;20.944;2022-10-23T00:48:22;22.30;;;16.90;;
44440;SDS011;30146;52.268;20.944;2022-10-23T00:50:54;24.90;;;17.50;;
44440;SDS011;30146;52.268;20.944;2022-10-23T00:53:25;24.90;;;17.80;;
44440;SDS011;30146;52.268;20.944;2022-10-23T00:55:56;23.70;;;18.40;;
44440;SDS011;30146;52.268;20.944;2022-10-23T00:58:30;23.70;;;17.30;;
44440;SDS011;30146;52.268;20.944;2022-10-23T01:01:01;23.10;;;17.30;;
44440;SDS011;30146;52.268;20.944;2022-10-23T01:03:44;25.90;;;17.80;;
44440;SDS011;30146;52.268;20.944;2022-10-23T01:06:16;23.00;;;16.80;;
44440;SDS011;30146;52.268;20.944;2022-10-23T01:08:56;26.60;;;19.30;;
44440;SDS011;30146;52.268;20.944;2022-10-23T01:11:38;27.40;;;19.00;;
44440;SDS011;30146;52.268;20.944;2022-10-23T01:14:16;30.70;;;19.20;;
44440;SDS011;30146;52.268;20.944;2022-10-23T01:16:57;28.50;;;18.40;;
44440;SDS011;30146;52.268;20.944;2022-10-23T01:19:44;28.50;;;19.70;;
44440;SDS011;30146;52.268;20.944;2022-10-23T01:22:31;26.20;;;19.50;;
44440;SDS011;30146;52.268;20.944;2022-10-23T01:25:18;28.20;;;18.40;;
44440;SDS011;30146;52.268;20.944;2022-10-23T01:27:58;33.30;;;19.90;;
44440;SDS011;30146;52.268;20.944;2022-10-23T01:30:33;32.50;;;19.90;;
44440;SDS011;30146;52.268;20.944;2022-10-23T01:33:14;33.00;;;20.40;;
44440;SDS011;30146;52.268;20.944;2022-10-23T01:35:52;28.50;;;20.10;;
44440;SDS011;30146;52.268;20.944;2022-10-23T01:38:32;36.10;;;20.70;;
44440;SDS011;30146;52.268;20.944;2022-10-23T01:41:16;35.30;;;20.30;;
44440;SDS011;30146;52.268;20.944;2022-10-23T01:43:58;35.70;;;19.50;;
44440;SDS011;30146;52.268;20.944;2022-10-23T01:46:35;30.30;;;20.00;;
44440;SDS011;30146;52.268;20.944;2022-10-23T01:49:10;31.40;;;19.80;;
44440;SDS011;30146;52.268;20.944;2022-10-23T01:51:44;33.30;;;22.30;;
44440;SDS011;30146;52.268;20.944;2022-10-23T01:54:21;32.50;;;19.90;;
44440;SDS011;30146;52.268;20.944;2022-10-23T01:57:00;33.90;;;20.40;;
44440;SDS011;30146;52.268;20.944;2022-10-23T02:02:05;35.30;;;20.90;;
44440;SDS011;30146;52.268;20.944;2022-10-23T02:04:42;30.90;;;20.30;;
44440;SDS011;30146;52.268;20.944;2022-10-23T02:07:19;28.60;;;19.60;;
44440;SDS011;30146;52.268;20.944;2022-10-23T02:09:50;33.30;;;21.20;;
44440;SDS011;30146;52.268;20.944;2022-10-23T02:12:24;36.30;;;21.20;;
44440;SDS011;30146;52.268;20.944;2022-10-23T02:15:06;32.50;;;20.40;;
44440;SDS011;30146;52.268;20.944;2022-10-23T02:17:44;34.10;;;20.50;;
44440;SDS011;30146;52.268;20.944;2022-10-23T02:20:25;31.20;;;20.50;;
44440;SDS011;30146;52.268;20.944;2022-10-23T02:23:06;32.10;;;20.80;;
44440;SDS011;30146;52.268;20.944;2022-10-23T02:25:49;41.20;;;21.50;;
44440;SDS011;30146;52.268;20.944;2022-10-23T02:28:25;35.60;;;20.60;;
44440;SDS011;30146;52.268;20.944;2022-10-23T02:31:02;30.90;;;20.90;;
44440;SDS011;30146;52.268;20.944;2022-10-23T02:33:36;36.40;;;21.20;;
44440;SDS011;30146;52.268;20.944;2022-10-23T02:36:08;32.70;;;21.20;;
44440;SDS011;30146;52.268;20.944;2022-10-23T02:38:40;38.40;;;21.50;;
44440;SDS011;30146;52.268;20.944;2022-10-23T02:41:22;36.00;;;22.50;;
44440;SDS011;30146;52.268;20.944;2022-10-23T02:44:03;45.50;;;21.80;;
44440;SDS011;30146;52.268;20.944;2022-10-23T02:46:47;33.20;;;21.60;;
44440;SDS011;30146;52.268;20.944;2022-10-23T02:49:25;38.00;;;22.80;;
44440;SDS011;30146;52.268;20.944;2022-10-23T02:52:08;40.50;;;22.50;;
44440;SDS011;30146;52.268;20.944;2022-10-23T02:54:52;33.20;;;22.00;;
44440;SDS011;30146;52.268;20.944;2022-10-23T02:57:50;34.10;;;21.20;;
44440;SDS011;30146;52.268;20.944;2022-10-23T03:00:26;38.90;;;23.70;;
44440;SDS011;30146;52.268;20.944;2022-10-23T03:05:34;42.60;;;23.30;;
44440;SDS011;30146;52.268;20.944;2022-10-23T03:08:08;39.50;;;23.00;;
44440;SDS011;30146;52.268;20.944;2022-10-23T03:10:41;35.80;;;21.00;;
44440;SDS011;30146;52.268;20.944;2022-10-23T03:13:12;33.70;;;22.00;;
44440;SDS011;30146;52.268;20.944;2022-10-23T03:15:44;38.10;;;22.00;;
44440;SDS011;30146;52.268;20.944;2022-10-23T03:18:15;37.10;;;22.70;;
44440;SDS011;30146;52.268;20.944;2022-10-23T03:20:49;45.50;;;24.40;;
44440;SDS011;30146;52.268;20.944;2022-10-23T03:23:22;45.50;;;24.40;;
44440;SDS011;30146;52.268;20.944;2022-10-23T03:25:53;49.30;;;25.00;;
44440;SDS011;30146;52.268;20.944;2022-10-23T03:28:31;39.40;;;23.90;;
44440;SDS011;30146;52.268;20.944;2022-10-23T03:31:03;39.20;;;23.90;;
44440;SDS011;30146;52.268;20.944;2022-10-23T03:33:34;38.70;;;24.10;;
44440;SDS011;30146;52.268;20.944;2022-10-23T03:36:10;41.70;;;24.10;;
44440;SDS011;30146;52.268;20.944;2022-10-23T03:38:43;37.70;;;23.10;;
44440;SDS011;30146;52.268;20.944;2022-10-23T03:41:14;37.80;;;21.40;;
44440;SDS011;30146;52.268;20.944;2022-10-23T03:43:45;37.90;;;23.50;;
44440;SDS011;30146;52.268;20.944;2022-10-23T03:46:16;38.70;;;23.70;;
44440;SDS011;30146;52.268;20.944;2022-10-23T03:48:51;35.90;;;24.20;;
44440;SDS011;30146;52.268;20.944;2022-10-23T03:51:25;34.00;;;22.80;;
44440;SDS011;30146;52.268;20.944;2022-10-23T03:53:57;37.10;;;23.50;;
44440;SDS011;30146;52.268;20.944;2022-10-23T03:56:29;34.00;;;22.20;;
44440;SDS011;30146;52.268;20.944;2022-10-23T03:59:00;39.10;;;24.80;;
44440;SDS011;30146;52.268;20.944;2022-10-23T04:01:31;39.80;;;24.10;;
44440;SDS011;30146;52.268;20.944;2022-10-23T04:04:02;40.80;;;23.10;;
44440;SDS011;30146;52.268;20.944;2022-10-23T04:06:33;36.40;;;22.80;;
44440;SDS011;30146;52.268;20.944;2022-10-23T04:09:04;37.90;;;23.70;;
44440;SDS011;30146;52.268;20.944;2022-10-23T04:11:38;37.50;;;23.90;;
44440;SDS011;30146;52.268;20.944;2022-10-23T04:14:11;37.40;;;24.10;;
44440;SDS011;30146;52.268;20.944;2022-10-23T04:16:42;36.70;;;23.90;;
44440;SDS011;30146;52.268;20.944;2022-10-23T04:19:13;42.10;;;24.40;;
44440;SDS011;30146;52.268;20.944;2022-10-23T04:21:45;34.20;;;22.30;;
44440;SDS011;30146;52.268;20.944;2022-10-23T04:24:16;40.00;;;24.30;;
44440;SDS011;30146;52.268;20.944;2022-10-23T04:26:47;45.60;;;23.20;;
44440;SDS011;30146;52.268;20.944;2022-10-23T04:29:18;38.60;;;23.60;;
44440;SDS011;30146;52.268;20.944;2022-10-23T04:31:51;36.00;;;23.80;;
44440;SDS011;30146;52.268;20.944;2022-10-23T04:34:22;35.40;;;22.30;;
44440;SDS011;30146;52.268;20.944;2022-10-23T04:36:54;33.20;;;22.50;;
44440;SDS011;30146;52.268;20.944;2022-10-23T04:39:24;34.00;;;22.40;;
44440;SDS011;30146;52.268;20.944;2022-10-23T04:41:55;35.40;;;21.40;;
44440;SDS011;30146;52.268;20.944;2022-10-23T04:44:26;32.90;;;22.00;;
44440;SDS011;30146;52.268;20.944;2022-10-23T04:46:57;36.50;;;23.40;;
44440;SDS011;30146;52.268;20.944;2022-10-23T04:49:29;35.30;;;23.20;;
44440;SDS011;30146;52.268;20.944;2022-10-23T04:52:11;33.80;;;22.60;;
44440;SDS011;30146;52.268;20.944;2022-10-23T04:54:53;35.80;;;22.20;;
44440;SDS011;30146;52.268;20.944;2022-10-23T04:57:33;31.10;;;20.70;;
44440;SDS011;30146;52.268;20.944;2022-10-23T05:00:08;37.30;;;21.20;;
44440;SDS011;30146;52.268;20.944;2022-10-23T05:02:49;41.40;;;23.30;;
44440;SDS011;30146;52.268;20.944;2022-10-23T05:05:21;33.90;;;22.80;;
44440;SDS011;30146;52.268;20.944;2022-10-23T05:08:06;38.80;;;22.30;;
44440;SDS011;30146;52.268;20.944;2022-10-23T05:11:07;39.00;;;23.10;;
44440;SDS011;30146;52.268;20.944;2022-10-23T05:13:43;37.90;;;23.30;;
44440;SDS011;30146;52.268;20.944;2022-10-23T05:16:21;37.70;;;21.90;;
44440;SDS011;30146;52.268;20.944;2022-10-23T05:19:04;36.90;;;22.10;;
44440;SDS011;30146;52.268;20.944;2022-10-23T05:21:38;41.70;;;22.40;;
44440;SDS011;30146;52.268;20.944;2022-10-23T05:24:14;34.00;;;22.50;;
44440;SDS011;30146;52.268;20.944;2022-10-23T05:26:54;38.70;;;23.50;;
44440;SDS011;30146;52.268;20.944;2022-10-23T05:29:26;38.50;;;22.60;;
44440;SDS011;30146;52.268;20.944;2022-10-23T05:31:58;42.80;;;22.50;;
44440;SDS011;30146;52.268;20.944;2022-10-23T05:34:34;40.60;;;23.00;;
44440;SDS011;30146;52.268;20.944;2022-10-23T05:37:08;41.90;;;23.50;;
44440;SDS011;30146;52.268;20.944;2022-10-23T05:39:42;43.30;;;23.10;;
44440;SDS011;30146;52.268;20.944;2022-10-23T05:42:14;36.60;;;22.20;;
44440;SDS011;30146;52.268;20.944;2022-10-23T05:44:47;38.80;;;23.80;;
44440;SDS011;30146;52.268;20.944;2022-10-23T05:47:42;45.40;;;24.50;;
44440;SDS011;30146;52.268;20.944;2022-10-23T05:50:43;41.60;;;22.80;;
44440;SDS011;30146;52.268;20.944;2022-10-23T05:53:26;43.90;;;25.60;;
44440;SDS011;30146;52.268;20.944;2022-10-23T05:56:22;43.50;;;23.70;;
44440;SDS011;30146;52.268;20.944;2022-10-23T05:59:01;41.30;;;25.80;;
44440;SDS011;30146;52.268;20.944;2022-10-23T06:01:50;39.40;;;22.30;;
44440;SDS011;30146;52.268;20.944;2022-10-23T06:04:30;33.90;;;22.00;;
44440;SDS011;30146;52.268;20.944;2022-10-23T06:07:22;40.30;;;24.10;;
44440;SDS011;30146;52.268;20.944;2022-10-23T06:09:58;38.40;;;22.00;;
44440;SDS011;30146;52.268;20.944;2022-10-23T06:12:29;40.20;;;22.20;;
44440;SDS011;30146;52.268;20.944;2022-10-23T06:15:01;39.70;;;22.90;;
44440;SDS011;30146;52.268;20.944;2022-10-23T06:17:50;31.40;;;20.80;;
44440;SDS011;30146;52.268;20.944;2022-10-23T06:20:20;36.10;;;21.70;;
44440;SDS011;30146;52.268;20.944;2022-10-23T06:23:03;38.30;;;22.00;;
44440;SDS011;30146;52.268;20.944;2022-10-23T06:25:55;39.80;;;21.50;;
44440;SDS011;30146;52.268;20.944;2022-10-23T06:28:33;38.80;;;21.50;;
44440;SDS011;30146;52.268;20.944;2022-10-23T06:31:04;36.70;;;21.70;;
44440;SDS011;30146;52.268;20.944;2022-10-23T06:33:36;35.80;;;20.70;;
44440;SDS011;30146;52.268;20.944;2022-10-23T06:36:08;41.00;;;21.00;;
44440;SDS011;30146;52.268;20.944;2022-10-23T06:38:41;31.70;;;19.90;;
44440;SDS011;30146;52.268;20.944;2022-10-23T06:41:13;33.80;;;19.90;;
44440;SDS011;30146;52.268;20.944;2022-10-23T06:43:52;27.90;;;19.30;;
44440;SDS011;30146;52.268;20.944;2022-10-23T06:46:26;39.50;;;21.70;;
44440;SDS011;30146;52.268;20.944;2022-10-23T06:49:20;28.80;;;18.50;;
44440;SDS011;30146;52.268;20.944;2022-10-23T06:51:53;32.30;;;19.60;;
44440;SDS011;30146;52.268;20.944;2022-10-23T06:54:24;33.20;;;20.00;;
44440;SDS011;30146;52.268;20.944;2022-10-23T06:57:11;30.40;;;18.70;;
44440;SDS011;30146;52.268;20.944;2022-10-23T06:59:44;30.50;;;17.90;;
44440;SDS011;30146;52.268;20.944;2022-10-23T07:02:16;31.30;;;17.50;;
44440;SDS011;30146;52.268;20.944;2022-10-23T07:04:48;32.50;;;17.30;;
44440;SDS011;30146;52.268;20.944;2022-10-23T07:07:19;31.00;;;17.30;;
44440;SDS011;30146;52.268;20.944;2022-10-23T07:09:50;33.70;;;18.90;;
44440;SDS011;30146;52.268;20.944;2022-10-23T07:12:28;27.60;;;18.30;;
44440;SDS011;30146;52.268;20.944;2022-10-23T07:15:21;36.90;;;18.10;;
44440;SDS011;30146;52.268;20.944;2022-10-23T07:17:52;32.50;;;17.80;;
44440;SDS011;30146;52.268;20.944;2022-10-23T07:20:25;29.50;;;17.90;;
44440;SDS011;30146;52.268;20.944;2022-10-23T07:22:56;29.50;;;18.00;;
44440;SDS011;30146;52.268;20.944;2022-10-23T07:25:30;38.40;;;18.70;;
44440;SDS011;30146;52.268;20.944;2022-10-23T07:28:03;38.30;;;18.30;;
44440;SDS011;30146;52.268;20.944;2022-10-23T07:30:36;32.80;;;19.10;;
44440;SDS011;30146;52.268;20.944;2022-10-23T07:33:10;30.30;;;17.50;;
44440;SDS011;30146;52.268;20.944;2022-10-23T07:35:54;29.20;;;18.20;;
44440;SDS011;30146;52.268;20.944;2022-10-23T07:38:27;28.10;;;18.60;;
44440;SDS011;30146;52.268;20.944;2022-10-23T07:40:59;32.10;;;19.90;;
44440;SDS011;30146;52.268;20.944;2022-10-23T07:43:34;34.60;;;19.10;;
44440;SDS011;30146;52.268;20.944;2022-10-23T07:46:05;29.30;;;21.30;;
44440;SDS011;30146;52.268;20.944;2022-10-23T07:48:39;36.80;;;20.90;;
44440;SDS011;30146;52.268;20.944;2022-10-23T07:51:12;36.10;;;21.30;;
44440;SDS011;30146;52.268;20.944;2022-10-23T07:53:45;34.70;;;21.00;;
44440;SDS011;30146;52.268;20.944;2022-10-23T07:56:27;37.60;;;20.60;;
44440;SDS011;30146;52.268;20.944;2022-10-23T07:59:20;38.50;;;21.70;;
44440;SDS011;30146;52.268;20.944;2022-10-23T08:01:53;31.40;;;20.10;;
44440;SDS011;30146;52.268;20.944;2022-10-23T08:04:29;32.30;;;19.70;;
44440;SDS011;30146;52.268;20.944;2022-10-23T08:07:14;39.30;;;20.80;;
44440;SDS011;30146;52.268;20.944;2022-10-23T08:09:46;29.50;;;19.50;;
44440;SDS011;30146;52.268;20.944;2022-10-23T08:12:18;30.60;;;19.50;;
44440;SDS011;30146;52.268;20.944;2022-10-23T08:14:54;29.30;;;19.30;;
44440;SDS011;30146;52.268;20.944;2022-10-23T08:17:26;25.40;;;17.80;;
44440;SDS011;30146;52.268;20.944;2022-10-23T08:20:11;43.10;;;19.30;;
44440;SDS011;30146;52.268;20.944;2022-10-23T08:22:43;29.70;;;19.00;;
44440;SDS011;30146;52.268;20.944;2022-10-23T08:25:19;32.80;;;18.90;;
44440;SDS011;30146;52.268;20.944;2022-10-23T08:27:52;31.60;;;19.30;;
44440;SDS011;30146;52.268;20.944;2022-10-23T08:30:23;28.90;;;20.20;;
44440;SDS011;30146;52.268;20.944;2022-10-23T08:32:55;36.40;;;22.10;;
44440;SDS011;30146;52.268;20.944;2022-10-23T08:35:26;28.90;;;19.50;;
44440;SDS011;30146;52.268;20.944;2022-10-23T08:37:57;34.70;;;22.40;;
44440;SDS011;30146;52.268;20.944;2022-10-23T08:40:29;29.70;;;18.00;;
44440;SDS011;30146;52.268;20.944;2022-10-23T08:43:31;30.80;;;18.40;;
44440;SDS011;30146;52.268;20.944;2022-10-23T08:46:20;31.10;;;18.60;;
44440;SDS011;30146;52.268;20.944;2022-10-23T08:49:26;30.10;;;18.50;;
44440;SDS011;30146;52.268;20.944;2022-10-23T08:52:11;27.30;;;17.40;;
44440;SDS011;30146;52.268;20.944;2022-10-23T08:55:03;28.20;;;17.40;;
44440;SDS011;30146;52.268;20.944;2022-10-23T08:57:46;33.60;;;19.40;;
44440;SDS011;30146;52.268;20.944;2022-10-23T09:00:21;31.80;;;19.20;;
44440;SDS011;30146;52.268;20.944;2022-10-23T09:02:52;32.80;;;20.90;;
44440;SDS011;30146;52.268;20.944;2022-10-23T09:05:26;45.50;;;20.20;;
44440;SDS011;30146;52.268;20.944;2022-10-23T09:08:06;34.60;;;20.10;;
44440;SDS011;30146;52.268;20.944;2022-10-23T09:10:57;29.80;;;18.80;;
44440;SDS011;30146;52.268;20.944;2022-10-23T09:16:38;36.90;;;20.40;;
44440;SDS011;30146;52.268;20.944;2022-10-23T09:19:18;38.50;;;20.10;;
44440;SDS011;30146;52.268;20.944;2022-10-23T09:21:54;31.60;;;20.70;;
44440;SDS011;30146;52.268;20.944;2022-10-23T09:24:26;41.10;;;20.10;;
44440;SDS011;30146;52.268;20.944;2022-10-23T09:26:58;33.20;;;19.80;;
44440;SDS011;30146;52.268;20.944;2022-10-23T09:29:30;28.10;;;19.10;;
44440;SDS011;30146;52.268;20.944;2022-10-23T09:32:04;27.30;;;18.20;;
44440;SDS011;30146;52.268;20.944;2022-10-23T09:34:35;33.80;;;19.90;;
44440;SDS011;30146;52.268;20.944;2022-10-23T09:37:19;33.30;;;18.70;;
44440;SDS011;30146;52.268;20.944;2022-10-23T09:40:01;41.20;;;18.50;;
44440;SDS011;30146;52.268;20.944;2022-10-23T09:42:50;28.80;;;17.60;;
44440;SDS011;30146;52.268;20.944;2022-10-23T09:45:24;36.90;;;21.20;;
44440;SDS011;30146;52.268;20.944;2022-10-23T09:50:52;27.90;;;17.20;;
44440;SDS011;30146;52.268;20.944;2022-10-23T09:53:28;25.90;;;17.20;;
44440;SDS011;30146;52.268;20.944;2022-10-23T09:56:01;28.50;;;16.70;;
44440;SDS011;30146;52.268;20.944;2022-10-23T09:58:39;31.50;;;16.40;;
44440;SDS011;30146;52.268;20.944;2022-10-23T10:01:25;30.80;;;16.30;;
44440;SDS011;30146;52.268;20.944;2022-10-23T10:04:11;29.00;;;18.50;;
44440;SDS011;30146;52.268;20.944;2022-10-23T10:06:42;33.20;;;19.50;;
44440;SDS011;30146;52.268;20.944;2022-10-23T10:09:14;32.60;;;20.00;;
44440;SDS011;30146;52.268;20.944;2022-10-23T10:11:46;31.70;;;17.30;;
44440;SDS011;30146;52.268;20.944;2022-10-23T10:14:34;31.30;;;17.50;;
44440;SDS011;30146;52.268;20.944;2022-10-23T10:17:15;24.40;;;16.40;;
44440;SDS011;30146;52.268;20.944;2022-10-23T10:22:57;27.00;;;18.40;;
44440;SDS011;30146;52.268;20.944;2022-10-23T10:25:33;30.10;;;18.20;;
44440;SDS011;30146;52.268;20.944;2022-10-23T10:28:19;22.80;;;16.20;;
44440;SDS011;30146;52.268;20.944;2022-10-23T10:31:02;28.50;;;20.10;;
44440;SDS011;30146;52.268;20.944;2022-10-23T10:33:45;30.50;;;15.80;;
44440;SDS011;30146;52.268;20.944;2022-10-23T10:36:29;24.40;;;14.90;;
44440;SDS011;30146;52.268;20.944;2022-10-23T10:39:12;25.60;;;14.60;;
44440;SDS011;30146;52.268;20.944;2022-10-23T10:41:57;22.50;;;12.70;;
44440;SDS011;30146;52.268;20.944;2022-10-23T10:44:39;19.30;;;12.70;;
44440;SDS011;30146;52.268;20.944;2022-10-23T10:47:20;22.60;;;13.00;;
44440;SDS011;30146;52.268;20.944;2022-10-23T10:50:01;23.40;;;13.30;;
44440;SDS011;30146;52.268;20.944;2022-10-23T10:53:07;30.40;;;15.90;;
44440;SDS011;30146;52.268;20.944;2022-10-23T10:55:47;20.00;;;13.30;;
44440;SDS011;30146;52.268;20.944;2022-10-23T10:58:23;22.00;;;11.90;;
44440;SDS011;30146;52.268;20.944;2022-10-23T11:01:01;16.60;;;11.00;;
44440;SDS011;30146;52.268;20.944;2022-10-23T11:03:40;20.80;;;11.00;;
44440;SDS011;30146;52.268;20.944;2022-10-23T11:06:17;20.70;;;10.40;;
44440;SDS011;30146;52.268;20.944;2022-10-23T11:08:55;20.10;;;10.60;;
44440;SDS011;30146;52.268;20.944;2022-10-23T11:11:47;14.40;;;9.80;;
44440;SDS011;30146;52.268;20.944;2022-10-23T11:14:20;19.10;;;10.60;;
44440;SDS011;30146;52.268;20.944;2022-10-23T11:16:53;23.80;;;12.00;;
44440;SDS011;30146;52.268;20.944;2022-10-23T11:19:31;17.10;;;11.70;;
44440;SDS011;30146;52.268;20.944;2022-10-23T11:22:09;23.80;;;12.60;;
44440;SDS011;30146;52.268;20.944;2022-10-23T11:25:09;21.00;;;12.50;;
44440;SDS011;30146;52.268;20.944;2022-10-23T11:27:56;17.70;;;11.50;;
44440;SDS011;30146;52.268;20.944;2022-10-23T11:30:55;21.00;;;12.10;;
44440;SDS011;30146;52.268;20.944;2022-10-23T11:33:44;17.60;;;11.40;;
44440;SDS011;30146;52.268;20.944;2022-10-23T11:36:38;17.20;;;11.30;;
44440;SDS011;30146;52.268;20.944;2022-10-23T11:39:15;19.00;;;13.40;;
44440;SDS011;30146;52.268;20.944;2022-10-23T11:42:10;17.10;;;11.00;;
44440;SDS011;30146;52.268;20.944;2022-10-23T11:44:44;17.20;;;11.50;;
44440;SDS011;30146;52.268;20.944;2022-10-23T11:47:26;23.10;;;12.80;;
44440;SDS011;30146;52.268;20.944;2022-10-23T11:50:23;17.00;;;11.30;;
44440;SDS011;30146;52.268;20.944;2022-10-23T11:53:01;27.80;;;12.10;;
44440;SDS011;30146;52.268;20.944;2022-10-23T11:55:59;29.00;;;13.30;;
44440;SDS011;30146;52.268;20.944;2022-10-23T11:58:42;17.30;;;11.10;;
44440;SDS011;30146;52.268;20.944;2022-10-23T12:01:23;19.50;;;12.70;;
44440;SDS011;30146;52.268;20.944;2022-10-23T12:04:00;14.50;;;10.60;;
44440;SDS011;30146;52.268;20.944;2022-10-23T12:06:43;16.60;;;11.80;;
44440;SDS011;30146;52.268;20.944;2022-10-23T12:09:29;17.60;;;11.80;;
44440;SDS011;30146;52.268;20.944;2022-10-23T12:12:14;16.70;;;11.60;;
44440;SDS011;30146;52.268;20.944;2022-10-23T12:15:15;15.90;;;11.40;;
44440;SDS011;30146;52.268;20.944;2022-10-23T12:17:51;19.90;;;11.70;;
44440;SDS011;30146;52.268;20.944;2022-10-23T12:20:37;20.20;;;11.60;;
44440;SDS011;30146;52.268;20.944;2022-10-23T12:23:18;16.10;;;10.60;;
44440;SDS011;30146;52.268;20.944;2022-10-23T12:26:11;21.70;;;11.70;;
44440;SDS011;30146;52.268;20.944;2022-10-23T12:29:04;16.90;;;11.80;;
44440;SDS011;30146;52.268;20.944;2022-10-23T12:31:48;18.20;;;12.50;;
44440;SDS011;30146;52.268;20.944;2022-10-23T12:34:30;19.40;;;11.00;;
44440;SDS011;30146;52.268;20.944;2022-10-23T12:37:24;18.80;;;11.90;;
44440;SDS011;30146;52.268;20.944;2022-10-23T12:42:40;25.10;;;13.10;;
44440;SDS011;30146;52.268;20.944;2022-10-23T12:45:21;20.50;;;12.50;;
44440;SDS011;30146;52.268;20.944;2022-10-23T12:47:54;18.30;;;11.90;;
44440;SDS011;30146;52.268;20.944;2022-10-23T12:50:26;21.10;;;12.70;;
44440;SDS011;30146;52.268;20.944;2022-10-23T12:52:58;17.30;;;14.30;;
44440;SDS011;30146;52.268;20.944;2022-10-23T12:55:45;26.50;;;13.50;;
44440;SDS011;30146;52.268;20.944;2022-10-23T12:58:20;21.00;;;13.10;;
44440;SDS011;30146;52.268;20.944;2022-10-23T13:00:56;15.90;;;13.70;;
44440;SDS011;30146;52.268;20.944;2022-10-23T13:03:29;18.60;;;13.10;;
44440;SDS011;30146;52.268;20.944;2022-10-23T13:06:02;18.30;;;13.10;;
44440;SDS011;30146;52.268;20.944;2022-10-23T13:08:36;23.00;;;13.90;;
44440;SDS011;30146;52.268;20.944;2022-10-23T13:11:23;22.90;;;14.00;;
44440;SDS011;30146;52.268;20.944;2022-10-23T13:13:58;16.90;;;12.80;;
44440;SDS011;30146;52.268;20.944;2022-10-23T13:16:28;16.90;;;13.20;;
44440;SDS011;30146;52.268;20.944;2022-10-23T13:18:59;18.70;;;13.10;;
44440;SDS011;30146;52.268;20.944;2022-10-23T13:21:30;22.70;;;13.50;;
44440;SDS011;30146;52.268;20.944;2022-10-23T13:24:03;25.40;;;13.60;;
44440;SDS011;30146;52.268;20.944;2022-10-23T13:26:45;19.70;;;13.10;;
44440;SDS011;30146;52.268;20.944;2022-10-23T13:29:18;18.00;;;13.90;;
44440;SDS011;30146;52.268;20.944;2022-10-23T13:31:52;17.10;;;13.90;;
44440;SDS011;30146;52.268;20.944;2022-10-23T13:34:24;19.20;;;15.20;;
44440;SDS011;30146;52.268;20.944;2022-10-23T13:36:58;19.80;;;13.20;;
44440;SDS011;30146;52.268;20.944;2022-10-23T13:39:32;21.60;;;13.30;;
44440;SDS011;30146;52.268;20.944;2022-10-23T13:42:10;27.20;;;15.50;;
44440;SDS011;30146;52.268;20.944;2022-10-23T13:44:42;27.90;;;14.40;;
44440;SDS011;30146;52.268;20.944;2022-10-23T13:47:14;31.10;;;14.50;;
44440;SDS011;30146;52.268;20.944;2022-10-23T13:49:45;18.00;;;14.90;;
44440;SDS011;30146;52.268;20.944;2022-10-23T13:52:18;18.50;;;15.00;;
44440;SDS011;30146;52.268;20.944;2022-10-23T13:54:51;19.80;;;15.40;;
44440;SDS011;30146;52.268;20.944;2022-10-23T13:57:22;25.00;;;15.40;;
44440;SDS011;30146;52.268;20.944;2022-10-23T13:59:53;23.70;;;15.40;;
44440;SDS011;30146;52.268;20.944;2022-10-23T14:02:24;18.70;;;14.80;;
44440;SDS011;30146;52.268;20.944;2022-10-23T14:04:56;19.90;;;14.70;;
44440;SDS011;30146;52.268;20.944;2022-10-23T14:07:27;19.90;;;15.30;;
44440;SDS011;30146;52.268;20.944;2022-10-23T14:09:58;31.20;;;15.60;;
44440;SDS011;30146;52.268;20.944;2022-10-23T14:12:29;24.00;;;14.70;;
44440;SDS011;30146;52.268;20.944;2022-10-23T14:15:07;23.20;;;14.60;;
44440;SDS011;30146;52.268;20.944;2022-10-23T14:17:39;23.80;;;13.80;;
44440;SDS011;30146;52.268;20.944;2022-10-23T14:20:10;20.70;;;13.50;;
44440;SDS011;30146;52.268;20.944;2022-10-23T14:22:45;24.20;;;12.40;;
44440;SDS011;30146;52.268;20.944;2022-10-23T14:25:16;16.30;;;12.00;;
44440;SDS011;30146;52.268;20.944;2022-10-23T14:27:47;18.10;;;12.00;;
44440;SDS011;30146;52.268;20.944;2022-10-23T14:30:18;18.10;;;12.80;;
44440;SDS011;30146;52.268;20.944;2022-10-23T14:32:49;21.50;;;11.60;;
44440;SDS011;30146;52.268;20.944;2022-10-23T14:35:20;11.40;;;9.50;;
44440;SDS011;30146;52.268;20.944;2022-10-23T14:37:52;18.70;;;11.60;;
44440;SDS011;30146;52.268;20.944;2022-10-23T14:40:24;18.30;;;10.70;;
44440;SDS011;30146;52.268;20.944;2022-10-23T14:42:55;19.00;;;10.80;;
44440;SDS011;30146;52.268;20.944;2022-10-23T14:45:26;14.20;;;9.90;;
44440;SDS011;30146;52.268;20.944;2022-10-23T14:47:57;16.10;;;10.10;;
44440;SDS011;30146;52.268;20.944;2022-10-23T14:50:30;18.90;;;10.70;;
44440;SDS011;30146;52.268;20.944;2022-10-23T14:53:05;16.90;;;10.60;;
44440;SDS011;30146;52.268;20.944;2022-10-23T14:55:36;16.50;;;10.40;;
44440;SDS011;30146;52.268;20.944;2022-10-23T14:58:08;22.10;;;12.20;;
44440;SDS011;30146;52.268;20.944;2022-10-23T15:00:39;16.30;;;11.70;;
44440;SDS011;30146;52.268;20.944;2022-10-23T15:03:12;19.80;;;12.10;;
44440;SDS011;30146;52.268;20.944;2022-10-23T15:05:43;16.40;;;12.90;;
44440;SDS011;30146;52.268;20.944;2022-10-23T15:08:14;17.80;;;12.40;;
44440;SDS011;30146;52.268;20.944;2022-10-23T15:10:45;18.10;;;12.80;;
44440;SDS011;30146;52.268;20.944;2022-10-23T15:13:16;18.60;;;12.20;;
44440;SDS011;30146;52.268;20.944;2022-10-23T15:15:47;18.90;;;12.00;;
44440;SDS011;30146;52.268;20.944;2022-10-23T15:18:17;16.40;;;11.30;;
44440;SDS011;30146;52.268;20.944;2022-10-23T15:20:51;18.10;;;12.20;;